Time;durP1;ratioP1;P1;durP2;ratioP2;P2;SDS_P1;SDS_P2;PMS_P1;PMS_P2;Temp;Humidity;BMP_temperature;BMP_pressure;BME280_temperature;BME280_humidity;BME280_pressure;Samples;Min_cycle;Max_cycle;Signal;HPM_P1;HPM_P2
2022/01/31 00:01:37;;;;;;;6.33;4.10;;;;;;;;;;5019282;28;20423;-79
2022/01/31 00:04:03;;;;;;;12.83;4.00;;;;;;;;;;5019845;28;20419;-79
2022/01/31 00:06:29;;;;;;;11.90;4.43;;;;;;;;;;5018670;28;20416;-79
2022/01/31 00:08:55;;;;;;;14.53;5.10;;;;;;;;;;5019286;28;20438;-79
2022/01/31 00:11:22;;;;;;;10.40;4.50;;;;;;;;;;5019111;28;20427;-79
2022/01/31 00:13:57;;;;;;;8.20;3.37;;;;;;;;;;5019699;28;20415;-79
2022/01/31 00:16:26;;;;;;;8.17;3.83;;;;;;;;;;5019502;28;20454;-79
2022/01/31 00:18:52;;;;;;;8.23;3.77;;;;;;;;;;5019934;28;20487;-79
2022/01/31 00:21:18;;;;;;;6.17;3.80;;;;;;;;;;5019378;28;20404;-79
2022/01/31 00:23:44;;;;;;;7.80;3.97;;;;;;;;;;5019435;28;20399;-80
2022/01/31 00:26:10;;;;;;;7.10;3.10;;;;;;;;;;5019608;28;20411;-80
2022/01/31 00:28:36;;;;;;;11.93;4.77;;;;;;;;;;5019427;28;20408;-80
2022/01/31 00:31:02;;;;;;;16.00;4.50;;;;;;;;;;5019623;28;20407;-80
2022/01/31 00:33:28;;;;;;;15.70;4.10;;;;;;;;;;5037718;23;20712;-80
2022/01/31 00:35:54;;;;;;;9.07;4.07;;;;;;;;;;5000456;28;20568;-78
2022/01/31 00:38:20;;;;;;;7.37;3.90;;;;;;;;;;4998739;28;20416;-80
2022/01/31 00:40:46;;;;;;;13.20;4.23;;;;;;;;;;4998984;28;20409;-80
2022/01/31 00:43:15;;;;;;;7.10;4.20;;;;;;;;;;4998066;28;20456;-81
2022/01/31 00:45:57;;;;;;;13.43;3.97;;;;;;;;;;4997968;28;20468;-80
2022/01/31 00:48:25;;;;;;;10.93;3.73;;;;;;;;;;4997932;28;20427;-79
2022/01/31 00:50:51;;;;;;;7.13;4.07;;;;;;;;;;4999196;28;20408;-79
2022/01/31 00:53:17;;;;;;;9.70;3.80;;;;;;;;;;5001582;28;20432;-80
2022/01/31 00:55:44;;;;;;;9.43;3.50;;;;;;;;;;5000586;28;20466;-78
2022/01/31 00:58:10;;;;;;;10.00;4.10;;;;;;;;;;4998945;28;20458;-79
2022/01/31 01:00:36;;;;;;;9.00;3.70;;;;;;;;;;4997321;28;20490;-80
2022/01/31 01:03:02;;;;;;;10.37;3.90;;;;;;;;;;4998026;28;20492;-79
2022/01/31 01:05:28;;;;;;;11.80;4.33;;;;;;;;;;4998370;28;20433;-79
2022/01/31 01:07:54;;;;;;;7.30;3.20;;;;;;;;;;4998529;28;20405;-80
2022/01/31 01:10:20;;;;;;;8.13;3.63;;;;;;;;;;4998680;28;20404;-80
2022/01/31 01:12:47;;;;;;;13.10;3.43;;;;;;;;;;4999629;28;20507;-82
2022/01/31 01:15:13;;;;;;;11.17;3.80;;;;;;;;;;4998598;28;20548;-79
2022/01/31 01:17:40;;;;;;;11.23;3.90;;;;;;;;;;4998228;28;20497;-79
2022/01/31 01:20:06;;;;;;;11.70;4.07;;;;;;;;;;4998582;28;20409;-79
2022/01/31 01:22:32;;;;;;;5.87;3.33;;;;;;;;;;4998533;28;20460;-80
2022/01/31 01:25:00;;;;;;;13.80;3.77;;;;;;;;;;4998268;28;20983;-80
2022/01/31 01:27:27;;;;;;;8.20;3.30;;;;;;;;;;4998087;28;20416;-79
2022/01/31 01:29:53;;;;;;;6.63;3.53;;;;;;;;;;4998217;28;20412;-80
2022/01/31 01:32:19;;;;;;;8.50;3.87;;;;;;;;;;4997824;28;20451;-80
2022/01/31 01:34:45;;;;;;;13.17;3.30;;;;;;;;;;4997873;28;20400;-80
2022/01/31 01:37:11;;;;;;;11.17;3.60;;;;;;;;;;4997814;28;20404;-80
2022/01/31 01:39:37;;;;;;;8.90;3.50;;;;;;;;;;4997907;28;20515;-80
2022/01/31 01:42:03;;;;;;;12.47;4.03;;;;;;;;;;4997936;28;20415;-80
2022/01/31 01:44:59;;;;;;;9.77;3.93;;;;;;;;;;4996373;28;20413;-80
2022/01/31 01:47:25;;;;;;;12.23;4.37;;;;;;;;;;4981355;28;20454;-80
2022/01/31 01:49:52;;;;;;;11.20;3.63;;;;;;;;;;4998901;28;20413;-80
2022/01/31 01:52:18;;;;;;;10.10;3.43;;;;;;;;;;5001274;28;20471;-80
2022/01/31 01:54:48;;;;;;;8.60;3.97;;;;;;;;;;5001374;28;20547;-79
2022/01/31 01:57:15;;;;;;;10.00;4.27;;;;;;;;;;5002064;28;20400;-80
2022/01/31 01:59:41;;;;;;;13.67;4.30;;;;;;;;;;5000737;28;20417;-80
2022/01/31 02:02:07;;;;;;;16.83;3.90;;;;;;;;;;5001376;28;20424;-78
2022/01/31 02:04:34;;;;;;;6.60;3.33;;;;;;;;;;5001309;28;20460;-80
2022/01/31 02:07:00;;;;;;;14.70;4.33;;;;;;;;;;5001393;28;20411;-80
2022/01/31 02:09:29;;;;;;;9.07;4.90;;;;;;;;;;5001788;28;20409;-79
2022/01/31 02:11:55;;;;;;;7.67;4.30;;;;;;;;;;5001731;28;20404;-80
2022/01/31 02:14:24;;;;;;;11.77;4.20;;;;;;;;;;5002040;28;20408;-80
2022/01/31 02:16:51;;;;;;;9.50;4.00;;;;;;;;;;5000895;28;20456;-79
2022/01/31 02:19:18;;;;;;;10.17;4.40;;;;;;;;;;5001080;28;20405;-80
2022/01/31 02:21:45;;;;;;;12.60;4.50;;;;;;;;;;4999465;28;20428;-80
2022/01/31 02:24:11;;;;;;;11.70;4.50;;;;;;;;;;5001037;28;20416;-79
2022/01/31 02:26:37;;;;;;;11.77;4.27;;;;;;;;;;5001577;28;20788;-81
2022/01/31 02:29:05;;;;;;;9.83;4.53;;;;;;;;;;5001468;28;20646;-80
2022/01/31 02:31:31;;;;;;;12.37;3.67;;;;;;;;;;5010185;28;20473;-79
2022/01/31 02:33:57;;;;;;;9.50;4.30;;;;;;;;;;5024156;28;20510;-79
2022/01/31 02:36:23;;;;;;;5.43;3.63;;;;;;;;;;5028278;28;20478;-80
2022/01/31 02:38:49;;;;;;;6.43;3.77;;;;;;;;;;5023810;28;20554;-80
2022/01/31 02:41:15;;;;;;;9.50;4.63;;;;;;;;;;5021192;28;20770;-81
2022/01/31 02:43:47;;;;;;;11.83;4.40;;;;;;;;;;5020496;28;20419;-80
2022/01/31 02:46:13;;;;;;;7.83;4.03;;;;;;;;;;5019776;28;20423;-79
2022/01/31 02:48:39;;;;;;;8.93;4.43;;;;;;;;;;5020339;28;20461;-79
2022/01/31 02:51:09;;;;;;;11.07;3.93;;;;;;;;;;5019183;28;20458;-79
2022/01/31 02:53:40;;;;;;;11.00;4.23;;;;;;;;;;5020449;28;20435;-81
2022/01/31 02:56:07;;;;;;;8.60;3.70;;;;;;;;;;5020607;28;20456;-81
2022/01/31 02:58:33;;;;;;;8.40;3.93;;;;;;;;;;5019005;28;20438;-80
2022/01/31 03:00:59;;;;;;;10.20;3.77;;;;;;;;;;5019915;28;20455;-81
2022/01/31 03:03:26;;;;;;;11.63;4.60;;;;;;;;;;5021835;28;20416;-80
2022/01/31 03:05:52;;;;;;;6.53;3.63;;;;;;;;;;5021836;28;20410;-80
2022/01/31 03:08:18;;;;;;;7.33;4.00;;;;;;;;;;5021071;28;20400;-80
2022/01/31 03:10:45;;;;;;;17.60;4.30;;;;;;;;;;5020540;28;20404;-80
2022/01/31 03:13:11;;;;;;;8.03;4.00;;;;;;;;;;5020253;28;20487;-81
2022/01/31 03:15:37;;;;;;;9.30;4.50;;;;;;;;;;5020551;28;20479;-80
2022/01/31 03:18:05;;;;;;;16.33;3.90;;;;;;;;;;5020607;28;20404;-80
2022/01/31 03:20:31;;;;;;;7.63;3.77;;;;;;;;;;5019911;28;20430;-80
2022/01/31 03:22:58;;;;;;;10.47;4.03;;;;;;;;;;5019704;28;20435;-80
2022/01/31 03:25:24;;;;;;;12.57;3.77;;;;;;;;;;5019781;28;20434;-80
2022/01/31 03:27:50;;;;;;;7.70;3.90;;;;;;;;;;5020388;28;20408;-81
2022/01/31 03:30:20;;;;;;;14.10;4.70;;;;;;;;;;5019942;28;20404;-80
2022/01/31 03:32:47;;;;;;;5.47;3.43;;;;;;;;;;5019473;28;20471;-80
2022/01/31 03:35:13;;;;;;;17.40;4.50;;;;;;;;;;5019967;28;20479;-80
2022/01/31 03:37:40;;;;;;;10.30;4.27;;;;;;;;;;5019755;28;20503;-80
2022/01/31 03:40:07;;;;;;;10.30;4.13;;;;;;;;;;5018715;28;20442;-80
2022/01/31 03:42:34;;;;;;;9.97;4.97;;;;;;;;;;5018214;28;20423;-79
2022/01/31 03:45:00;;;;;;;8.83;4.70;;;;;;;;;;5017967;28;20403;-80
2022/01/31 03:47:26;;;;;;;13.77;4.03;;;;;;;;;;5018858;28;20438;-79
2022/01/31 03:49:52;;;;;;;15.83;4.93;;;;;;;;;;5019743;28;20885;-79
2022/01/31 03:52:18;;;;;;;8.80;4.00;;;;;;;;;;5017584;28;20804;-80
2022/01/31 03:54:45;;;;;;;8.10;4.00;;;;;;;;;;5019964;28;20427;-79
2022/01/31 03:57:11;;;;;;;9.10;4.30;;;;;;;;;;5019094;28;20411;-80
2022/01/31 03:59:37;;;;;;;10.10;3.70;;;;;;;;;;5018176;28;20399;-80
2022/01/31 04:02:06;;;;;;;9.40;4.87;;;;;;;;;;5017490;28;20416;-80
2022/01/31 04:04:32;;;;;;;14.77;4.17;;;;;;;;;;5018889;28;20433;-80
2022/01/31 04:06:58;;;;;;;8.67;5.13;;;;;;;;;;5017593;28;20439;-81
2022/01/31 04:09:24;;;;;;;9.10;4.50;;;;;;;;;;5017782;28;20473;-81
2022/01/31 04:11:50;;;;;;;15.10;5.10;;;;;;;;;;5019001;28;20419;-81
2022/01/31 04:14:16;;;;;;;7.60;3.23;;;;;;;;;;5017572;28;20409;-81
2022/01/31 04:16:42;;;;;;;12.40;4.87;;;;;;;;;;5017316;28;20477;-80
2022/01/31 04:19:08;;;;;;;8.63;3.93;;;;;;;;;;5017901;28;20404;-80
2022/01/31 04:21:34;;;;;;;7.80;3.70;;;;;;;;;;5017744;28;20489;-80
2022/01/31 04:24:01;;;;;;;9.43;4.27;;;;;;;;;;5019110;28;20434;-81
2022/01/31 04:26:33;;;;;;;9.60;3.50;;;;;;;;;;5019633;28;20411;-80
2022/01/31 04:29:06;;;;;;;10.37;4.50;;;;;;;;;;5019000;28;20404;-80
2022/01/31 04:31:41;;;;;;;8.13;3.70;;;;;;;;;;5018575;28;20430;-80
2022/01/31 04:34:09;;;;;;;9.50;3.80;;;;;;;;;;5018567;28;20501;-81
2022/01/31 04:36:35;;;;;;;10.87;3.57;;;;;;;;;;5018888;28;20458;-81
2022/01/31 04:39:01;;;;;;;15.97;4.03;;;;;;;;;;5018812;28;20771;-80
2022/01/31 04:41:28;;;;;;;8.93;3.80;;;;;;;;;;5017240;28;20404;-80
2022/01/31 04:43:58;;;;;;;8.10;3.77;;;;;;;;;;5018604;28;20508;-80
2022/01/31 04:46:24;;;;;;;12.43;4.30;;;;;;;;;;5018941;28;20408;-80
2022/01/31 04:48:50;;;;;;;8.50;3.70;;;;;;;;;;5014362;28;20427;-80
2022/01/31 04:51:16;;;;;;;25.63;5.07;;;;;;;;;;5018548;28;20440;-79
2022/01/31 04:53:42;;;;;;;6.67;3.63;;;;;;;;;;5019270;28;20432;-80
2022/01/31 04:56:08;;;;;;;13.60;5.70;;;;;;;;;;5009218;28;20475;-80
2022/01/31 04:58:35;;;;;;;10.90;4.60;;;;;;;;;;5019437;28;20450;-80
2022/01/31 05:01:01;;;;;;;15.93;4.20;;;;;;;;;;5018276;28;20412;-80
2022/01/31 05:03:27;;;;;;;13.83;3.97;;;;;;;;;;5018044;28;20436;-80
2022/01/31 05:05:53;;;;;;;7.80;3.90;;;;;;;;;;5018542;28;20772;-80
2022/01/31 05:08:25;;;;;;;8.20;3.67;;;;;;;;;;5018968;28;20892;-80
2022/01/31 05:10:51;;;;;;;19.30;4.90;;;;;;;;;;5018814;28;20389;-80
2022/01/31 05:13:17;;;;;;;6.80;3.93;;;;;;;;;;5018843;28;20424;-79
2022/01/31 05:15:44;;;;;;;6.70;4.30;;;;;;;;;;5017316;28;20530;-79
2022/01/31 05:18:10;;;;;;;8.77;4.30;;;;;;;;;;5017981;28;20403;-80
2022/01/31 05:20:37;;;;;;;9.73;3.50;;;;;;;;;;5017638;28;20408;-80
2022/01/31 05:23:05;;;;;;;12.77;4.70;;;;;;;;;;5018154;28;20420;-79
2022/01/31 05:25:31;;;;;;;7.67;4.00;;;;;;;;;;5018280;28;20422;-78
2022/01/31 05:27:57;;;;;;;9.00;5.20;;;;;;;;;;5021752;28;20415;-78
2022/01/31 05:30:23;;;;;;;11.20;4.80;;;;;;;;;;5027106;28;20446;-78
2022/01/31 05:32:50;;;;;;;9.37;3.90;;;;;;;;;;5021490;28;20823;-80
2022/01/31 05:35:16;;;;;;;11.33;4.97;;;;;;;;;;5017493;28;20471;-80
2022/01/31 05:37:42;;;;;;;12.33;5.40;;;;;;;;;;5017244;28;20411;-80
2022/01/31 05:40:09;;;;;;;10.13;5.90;;;;;;;;;;5018241;28;20879;-79
2022/01/31 05:42:35;;;;;;;13.83;4.73;;;;;;;;;;5017268;28;20431;-80
2022/01/31 05:45:02;;;;;;;8.13;4.93;;;;;;;;;;5018566;28;20415;-80
2022/01/31 05:47:28;;;;;;;14.77;5.80;;;;;;;;;;5017133;28;20412;-80
2022/01/31 05:49:54;;;;;;;10.70;5.10;;;;;;;;;;5021729;28;20416;-78
2022/01/31 05:52:20;;;;;;;11.13;5.77;;;;;;;;;;5027717;28;20435;-78
2022/01/31 05:54:46;;;;;;;14.73;6.00;;;;;;;;;;5024746;28;20403;-79
2022/01/31 05:57:12;;;;;;;11.70;6.37;;;;;;;;;;5022407;28;20411;-80
2022/01/31 05:59:39;;;;;;;15.70;6.77;;;;;;;;;;5017805;28;20880;-80
2022/01/31 06:02:05;;;;;;;8.70;5.93;;;;;;;;;;5018111;28;20428;-78
2022/01/31 06:04:31;;;;;;;10.00;6.10;;;;;;;;;;5018661;28;20404;-79
2022/01/31 06:06:58;;;;;;;12.53;7.70;;;;;;;;;;5018692;28;20404;-79
2022/01/31 06:09:26;;;;;;;16.40;6.90;;;;;;;;;;5018683;28;20408;-79
2022/01/31 06:11:53;;;;;;;9.53;6.33;;;;;;;;;;5018300;28;20824;-80
2022/01/31 06:14:19;;;;;;;9.33;5.87;;;;;;;;;;5017946;28;20418;-79
2022/01/31 06:16:45;;;;;;;8.73;5.87;;;;;;;;;;5018441;28;20554;-79
2022/01/31 06:19:11;;;;;;;7.37;4.83;;;;;;;;;;5018326;28;20400;-79
2022/01/31 06:21:37;;;;;;;10.47;5.73;;;;;;;;;;5018295;28;20411;-79
2022/01/31 06:24:08;;;;;;;8.50;5.50;;;;;;;;;;5017645;28;20478;-79
2022/01/31 06:26:34;;;;;;;8.00;5.37;;;;;;;;;;5020894;28;20790;-79
2022/01/31 06:29:01;;;;;;;7.10;5.40;;;;;;;;;;5018853;28;20416;-80
2022/01/31 06:31:27;;;;;;;5.80;4.70;;;;;;;;;;5017180;28;20415;-80
2022/01/31 06:33:53;;;;;;;10.73;4.30;;;;;;;;;;5064469;23;20497;-78
2022/01/31 06:36:22;;;;;;;10.60;3.87;;;;;;;;;;5059870;28;20530;-78
2022/01/31 06:38:48;;;;;;;8.80;3.93;;;;;;;;;;5066963;28;20398;-78
2022/01/31 06:41:16;;;;;;;9.70;4.17;;;;;;;;;;5065362;28;20468;-78
2022/01/31 06:43:42;;;;;;;8.10;4.10;;;;;;;;;;5061291;28;20892;-78
2022/01/31 06:46:08;;;;;;;10.10;4.40;;;;;;;;;;5060369;28;20401;-77
2022/01/31 06:48:34;;;;;;;11.30;4.60;;;;;;;;;;5056749;28;20430;-77
2022/01/31 06:51:01;;;;;;;7.90;3.57;;;;;;;;;;5056603;28;20398;-77
2022/01/31 06:53:28;;;;;;;5.93;3.50;;;;;;;;;;5056399;28;20417;-77
2022/01/31 06:55:59;;;;;;;8.03;2.90;;;;;;;;;;5056740;28;20449;-77
2022/01/31 06:58:25;;;;;;;9.33;3.53;;;;;;;;;;5056429;28;20481;-77
2022/01/31 07:00:51;;;;;;;9.50;4.70;;;;;;;;;;5056054;28;20851;-76
2022/01/31 07:03:17;;;;;;;7.40;3.50;;;;;;;;;;5055838;28;20422;-77
2022/01/31 07:05:44;;;;;;;10.23;3.50;;;;;;;;;;5056202;28;20429;-77
2022/01/31 07:08:11;;;;;;;8.53;3.80;;;;;;;;;;5056087;28;20790;-77
2022/01/31 07:10:38;;;;;;;9.00;3.83;;;;;;;;;;5054697;28;20485;-77
2022/01/31 07:13:12;;;;;;;11.13;4.27;;;;;;;;;;5056191;28;20519;-77
2022/01/31 07:15:39;;;;;;;10.13;3.30;;;;;;;;;;5056163;28;20446;-76
2022/01/31 07:18:05;;;;;;;8.40;3.67;;;;;;;;;;5056673;28;20438;-76
2022/01/31 07:20:40;;;;;;;5.90;3.10;;;;;;;;;;5056258;28;20406;-77
2022/01/31 07:25:51;;;;;;;6.23;3.23;;;;;;;;;;5056029;28;20785;-77
2022/01/31 07:28:17;;;;;;;6.00;3.10;;;;;;;;;;5056299;28;20398;-77
2022/01/31 07:30:46;;;;;;;9.90;3.33;;;;;;;;;;5056033;28;20497;-77
2022/01/31 07:33:12;;;;;;;6.80;3.23;;;;;;;;;;5056114;28;20449;-77
2022/01/31 07:35:39;;;;;;;7.00;3.30;;;;;;;;;;5054546;28;20969;-76
2022/01/31 07:38:05;;;;;;;7.30;3.20;;;;;;;;;;5055960;28;20455;-77
2022/01/31 07:40:31;;;;;;;6.57;2.80;;;;;;;;;;5056366;28;20414;-77
2022/01/31 07:42:57;;;;;;;4.83;3.00;;;;;;;;;;5057372;28;20425;-76
2022/01/31 07:45:23;;;;;;;8.30;3.40;;;;;;;;;;5052436;28;20417;-76
2022/01/31 07:47:49;;;;;;;4.73;2.97;;;;;;;;;;5036613;28;20791;-77
2022/01/31 07:50:16;;;;;;;7.43;3.10;;;;;;;;;;5040457;28;20432;-77
2022/01/31 07:52:43;;;;;;;8.10;3.50;;;;;;;;;;5053295;28;20448;-77
2022/01/31 07:55:10;;;;;;;4.67;3.90;;;;;;;;;;5061069;28;20945;-76
2022/01/31 07:57:37;;;;;;;7.40;2.93;;;;;;;;;;5068033;28;20414;-76
2022/01/31 08:00:04;;;;;;;5.57;2.93;;;;;;;;;;5062601;28;20492;-77
2022/01/31 08:02:31;;;;;;;4.90;2.50;;;;;;;;;;5042606;28;20465;-78
2022/01/31 08:04:57;;;;;;;5.90;3.27;;;;;;;;;;5051526;28;20475;-78
2022/01/31 08:07:23;;;;;;;9.60;3.67;;;;;;;;;;5051170;28;20805;-78
2022/01/31 08:09:49;;;;;;;6.53;3.47;;;;;;;;;;5051873;28;20422;-78
2022/01/31 08:12:15;;;;;;;8.13;3.10;;;;;;;;;;5054959;28;20436;-78
2022/01/31 08:14:43;;;;;;;6.00;2.70;;;;;;;;;;5053517;28;20477;-79
2022/01/31 08:17:09;;;;;;;6.30;2.90;;;;;;;;;;5050107;28;20422;-79
2022/01/31 08:19:35;;;;;;;4.23;3.17;;;;;;;;;;5049162;28;20417;-78
2022/01/31 08:22:01;;;;;;;5.37;2.77;;;;;;;;;;5051596;28;20464;-78
2022/01/31 08:24:27;;;;;;;6.47;3.30;;;;;;;;;;5045682;28;20434;-77
2022/01/31 08:26:53;;;;;;;5.60;3.00;;;;;;;;;;5043127;28;20411;-77
2022/01/31 08:31:48;;;;;;;5.73;3.10;;;;;;;;;;5045636;28;20417;-76
2022/01/31 08:36:40;;;;;;;6.10;3.67;;;;;;;;;;5048078;28;20450;-79
2022/01/31 08:39:26;;;;;;;9.17;3.07;;;;;;;;;;5050936;28;20440;-78
2022/01/31 08:41:53;;;;;;;5.57;3.50;;;;;;;;;;5038493;28;20488;-78
2022/01/31 08:44:22;;;;;;;4.97;3.43;;;;;;;;;;5066270;28;20981;-78
2022/01/31 08:46:49;;;;;;;5.50;3.33;;;;;;;;;;5050657;28;20443;-77
2022/01/31 08:49:15;;;;;;;5.20;3.50;;;;;;;;;;5049906;28;20429;-78
2022/01/31 08:51:42;;;;;;;6.07;4.00;;;;;;;;;;5050345;28;20429;-77
2022/01/31 08:54:08;;;;;;;5.90;3.90;;;;;;;;;;5054526;28;20434;-79
2022/01/31 08:56:40;;;;;;;4.20;3.80;;;;;;;;;;5054106;28;20454;-77
2022/01/31 08:59:12;;;;;;;4.83;3.37;;;;;;;;;;5037834;28;20461;-78
2022/01/31 09:01:38;;;;;;;9.60;3.50;;;;;;;;;;5048600;28;20461;-78
2022/01/31 09:04:05;;;;;;;11.83;4.13;;;;;;;;;;5048321;28;20449;-77
2022/01/31 09:06:35;;;;;;;10.30;4.23;;;;;;;;;;5048956;28;21012;-77
2022/01/31 09:09:02;;;;;;;5.57;3.90;;;;;;;;;;5052049;28;20436;-77
2022/01/31 09:11:29;;;;;;;10.30;4.90;;;;;;;;;;5040599;28;20450;-77
2022/01/31 09:13:55;;;;;;;7.23;4.13;;;;;;;;;;5046266;28;20450;-79
2022/01/31 09:16:22;;;;;;;5.87;3.57;;;;;;;;;;5046478;28;20826;-77
2022/01/31 09:18:48;;;;;;;5.33;3.73;;;;;;;;;;5044139;28;20421;-76
2022/01/31 09:21:14;;;;;;;6.60;3.97;;;;;;;;;;5048411;28;20476;-76
2022/01/31 09:23:40;;;;;;;7.43;4.00;;;;;;;;;;5047596;28;20441;-76
2022/01/31 09:26:06;;;;;;;7.50;3.87;;;;;;;;;;5043212;28;20433;-76
2022/01/31 09:28:33;;;;;;;4.97;3.13;;;;;;;;;;5051064;28;20441;-76
2022/01/31 09:30:59;;;;;;;4.60;3.73;;;;;;;;;;5048217;28;20465;-76
2022/01/31 09:33:25;;;;;;;6.07;3.87;;;;;;;;;;5050816;28;20458;-76
2022/01/31 09:35:51;;;;;;;4.03;3.03;;;;;;;;;;5050583;28;20475;-77
2022/01/31 09:38:22;;;;;;;4.63;3.23;;;;;;;;;;5047865;28;20492;-77
2022/01/31 09:40:48;;;;;;;9.33;3.57;;;;;;;;;;5036420;28;20442;-76
2022/01/31 09:48:35;;;;;;;7.00;3.70;;;;;;;;;;5042268;28;20419;-76
2022/01/31 09:51:12;;;;;;;4.27;2.70;;;;;;;;;;5049615;28;20983;-76
2022/01/31 09:53:42;;;;;;;4.30;3.20;;;;;;;;;;5051943;28;20510;-77
2022/01/31 09:56:11;;;;;;;7.33;3.50;;;;;;;;;;5044555;28;20974;-77
2022/01/31 09:58:38;;;;;;;4.90;2.80;;;;;;;;;;5042402;28;20443;-77
2022/01/31 10:01:04;;;;;;;6.03;3.10;;;;;;;;;;5041707;28;20442;-76
2022/01/31 10:03:30;;;;;;;4.07;3.20;;;;;;;;;;5043333;28;20443;-78
2022/01/31 10:05:56;;;;;;;6.40;5.23;;;;;;;;;;5048463;28;21000;-77
2022/01/31 10:08:22;;;;;;;4.37;3.20;;;;;;;;;;5041980;28;20492;-77
2022/01/31 10:10:49;;;;;;;4.53;3.53;;;;;;;;;;5040878;28;20422;-78
2022/01/31 10:16:28;;;;;;;3.23;2.40;;;;;;;;;;5042927;28;20453;-77
2022/01/31 10:19:05;;;;;;;7.43;3.83;;;;;;;;;;5053019;28;20898;-77
2022/01/31 10:21:32;;;;;;;4.03;2.70;;;;;;;;;;5052940;28;20421;-77
2022/01/31 10:23:58;;;;;;;4.20;3.13;;;;;;;;;;5042655;28;21006;-77
2022/01/31 10:26:34;;;;;;;3.63;2.60;;;;;;;;;;5041855;28;20426;-78
2022/01/31 10:29:18;;;;;;;5.63;2.80;;;;;;;;;;5043137;28;20946;-77
2022/01/31 10:31:55;;;;;;;3.67;2.23;;;;;;;;;;5051043;28;20823;-78
2022/01/31 10:34:23;;;;;;;3.17;2.20;;;;;;;;;;5053328;28;20979;-77
2022/01/31 10:36:49;;;;;;;4.30;2.13;;;;;;;;;;5043068;28;20439;-77
2022/01/31 10:43:25;;;;;;;2.80;2.20;;;;;;;;;;5047249;28;20246;-77
2022/01/31 10:53:41;;;;;;;3.40;2.20;;;;;;;;;;5047499;28;20934;-77
2022/01/31 10:56:07;;;;;;;6.00;2.53;;;;;;;;;;5047814;28;20450;-76
2022/01/31 10:58:33;;;;;;;4.03;2.20;;;;;;;;;;5052090;28;20480;-76
2022/01/31 11:01:13;;;;;;;6.50;2.27;;;;;;;;;;5046877;28;20467;-77
2022/01/31 11:03:40;;;;;;;3.73;2.70;;;;;;;;;;5057362;28;20517;-76
2022/01/31 11:06:08;;;;;;;2.47;1.40;;;;;;;;;;5045839;28;20422;-77
2022/01/31 11:08:35;;;;;;;3.92;2.08;;;;;;;;;;5042143;28;20503;-77
2022/01/31 11:11:01;;;;;;;3.20;1.77;;;;;;;;;;5048034;28;20203;-77
2022/01/31 11:13:27;;;;;;;2.20;1.87;;;;;;;;;;5048538;28;20438;-77
2022/01/31 11:15:57;;;;;;;2.63;1.73;;;;;;;;;;5041472;28;21028;-76
2022/01/31 11:18:25;;;;;;;3.33;2.00;;;;;;;;;;5048909;28;20491;-77
2022/01/31 11:20:53;;;;;;;2.10;1.80;;;;;;;;;;5051832;28;20947;-77
2022/01/31 11:23:22;;;;;;;4.57;2.10;;;;;;;;;;5049458;28;20195;-77
2022/01/31 11:25:51;;;;;;;4.75;2.10;;;;;;;;;;5046704;28;20459;-76
2022/01/31 11:28:18;;;;;;;4.45;2.17;;;;;;;;;;5053738;28;20512;-78
2022/01/31 11:30:44;;;;;;;4.00;2.00;;;;;;;;;;5050684;28;20416;-76
2022/01/31 11:33:11;;;;;;;2.80;1.80;;;;;;;;;;5049152;28;20499;-76
2022/01/31 11:35:37;;;;;;;4.60;1.80;;;;;;;;;;5055521;28;20203;-77
2022/01/31 11:38:03;;;;;;;8.83;2.30;;;;;;;;;;5052942;28;21020;-77
2022/01/31 11:40:29;;;;;;;2.40;1.80;;;;;;;;;;5047176;28;20418;-78
2022/01/31 11:42:56;;;;;;;2.30;1.80;;;;;;;;;;5050939;28;20825;-76
2022/01/31 11:45:30;;;;;;;2.20;1.90;;;;;;;;;;5046586;28;20445;-76
2022/01/31 11:48:03;;;;;;;1.70;1.47;;;;;;;;;;5053901;28;20437;-76
2022/01/31 11:50:29;;;;;;;2.30;1.33;;;;;;;;;;5039611;28;20418;-75
2022/01/31 11:52:57;;;;;;;2.33;1.30;;;;;;;;;;5052107;28;20420;-76
2022/01/31 11:55:24;;;;;;;1.53;1.00;;;;;;;;;;5046778;28;20818;-76
2022/01/31 11:57:52;;;;;;;4.70;1.90;;;;;;;;;;5053521;28;20433;-77
2022/01/31 12:00:19;;;;;;;2.20;1.43;;;;;;;;;;5052641;28;20418;-77
2022/01/31 12:02:47;;;;;;;1.67;1.30;;;;;;;;;;5053387;28;20433;-77
2022/01/31 12:05:16;;;;;;;2.90;1.37;;;;;;;;;;5042621;28;20841;-77
2022/01/31 12:07:46;;;;;;;1.40;1.00;;;;;;;;;;5049712;28;20492;-76
2022/01/31 12:10:22;;;;;;;2.50;0.97;;;;;;;;;;5053309;28;20512;-77
2022/01/31 12:23:40;;;;;;;2.67;1.03;;;;;;;;;;5051260;28;20444;-76
2022/01/31 12:26:25;;;;;;;1.30;0.97;;;;;;;;;;5038176;28;20429;-77
2022/01/31 12:28:58;;;;;;;1.80;1.23;;;;;;;;;;5044139;28;20440;-77
2022/01/31 12:31:36;;;;;;;2.30;1.30;;;;;;;;;;5042904;28;20770;-77
2022/01/31 12:34:04;;;;;;;3.93;1.40;;;;;;;;;;5037560;28;20949;-77
2022/01/31 12:36:36;;;;;;;1.60;1.33;;;;;;;;;;5037172;28;20470;-77
2022/01/31 12:39:21;;;;;;;2.10;1.30;;;;;;;;;;5042979;28;20432;-76
2022/01/31 12:41:47;;;;;;;3.10;1.30;;;;;;;;;;5038638;28;20568;-76
2022/01/31 12:44:31;;;;;;;3.63;1.67;;;;;;;;;;5046813;28;20507;-76
2022/01/31 12:47:07;;;;;;;3.40;1.30;;;;;;;;;;5040474;28;20832;-78
2022/01/31 12:49:34;;;;;;;3.17;1.73;;;;;;;;;;5041114;28;20901;-78
2022/01/31 12:52:01;;;;;;;2.90;1.40;;;;;;;;;;5050378;28;20789;-78
2022/01/31 12:54:28;;;;;;;2.47;1.70;;;;;;;;;;5034868;28;21020;-79
2022/01/31 12:56:54;;;;;;;2.27;1.60;;;;;;;;;;5037065;28;20456;-76
2022/01/31 12:59:20;;;;;;;2.43;1.53;;;;;;;;;;5042155;28;20501;-75
2022/01/31 13:01:50;;;;;;;1.90;1.10;;;;;;;;;;5040528;28;20779;-76
2022/01/31 13:04:17;;;;;;;3.77;1.50;;;;;;;;;;5057656;28;20437;-76
2022/01/31 13:06:46;;;;;;;3.73;1.57;;;;;;;;;;5050325;28;20425;-76
2022/01/31 13:09:12;;;;;;;2.10;1.80;;;;;;;;;;5050316;28;20438;-74
2022/01/31 13:11:40;;;;;;;2.27;1.43;;;;;;;;;;5037560;28;20524;-75
2022/01/31 13:14:14;;;;;;;2.10;1.37;;;;;;;;;;5045595;28;20457;-75
2022/01/31 13:16:44;;;;;;;2.50;1.60;;;;;;;;;;5043849;28;20492;-75
2022/01/31 13:19:15;;;;;;;2.77;1.60;;;;;;;;;;5043431;28;20768;-75
2022/01/31 13:21:41;;;;;;;2.87;1.60;;;;;;;;;;5043977;28;20436;-75
2022/01/31 13:24:08;;;;;;;3.50;1.60;;;;;;;;;;5043579;28;20441;-75
2022/01/31 13:26:53;;;;;;;3.93;1.20;;;;;;;;;;5041012;28;20442;-76
2022/01/31 13:29:36;;;;;;;2.50;1.60;;;;;;;;;;5036173;28;20513;-76
2022/01/31 13:32:16;;;;;;;2.63;1.47;;;;;;;;;;5042148;28;20458;-76
2022/01/31 13:34:43;;;;;;;4.83;1.40;;;;;;;;;;5043958;28;20956;-76
2022/01/31 13:37:28;;;;;;;3.00;1.67;;;;;;;;;;5045518;28;20477;-77
2022/01/31 13:39:55;;;;;;;3.90;1.70;;;;;;;;;;5045039;28;20465;-77
2022/01/31 13:42:24;;;;;;;2.17;1.50;;;;;;;;;;5044467;28;20429;-76
2022/01/31 13:44:53;;;;;;;4.80;1.80;;;;;;;;;;5044469;28;20422;-75
2022/01/31 13:47:33;;;;;;;1.73;1.17;;;;;;;;;;5043976;28;20491;-76
2022/01/31 13:50:01;;;;;;;2.20;2.00;;;;;;;;;;5043769;28;20422;-77
2022/01/31 13:52:32;;;;;;;2.17;1.40;;;;;;;;;;5043762;28;20568;-76
2022/01/31 13:54:59;;;;;;;3.53;1.43;;;;;;;;;;5046535;28;20425;-77
2022/01/31 13:57:25;;;;;;;1.63;1.30;;;;;;;;;;5040606;28;20930;-77
2022/01/31 13:59:52;;;;;;;3.50;1.67;;;;;;;;;;5042161;28;20433;-75
2022/01/31 14:02:19;;;;;;;2.77;1.60;;;;;;;;;;5048113;28;20460;-76
2022/01/31 14:04:45;;;;;;;5.20;1.67;;;;;;;;;;5041812;28;20449;-76
2022/01/31 14:07:27;;;;;;;4.90;1.67;;;;;;;;;;5042457;28;20509;-76
2022/01/31 14:09:53;;;;;;;3.17;1.63;;;;;;;;;;5039800;28;20431;-78
2022/01/31 14:12:20;;;;;;;4.23;1.30;;;;;;;;;;5046317;28;20826;-75
2022/01/31 14:14:46;;;;;;;5.83;1.57;;;;;;;;;;5047878;28;20418;-76
2022/01/31 14:17:12;;;;;;;2.20;1.40;;;;;;;;;;5047084;28;20548;-77
2022/01/31 14:19:41;;;;;;;3.30;1.43;;;;;;;;;;5046573;28;20459;-76
2022/01/31 14:22:08;;;;;;;2.10;1.63;;;;;;;;;;5042413;28;20917;-76
2022/01/31 14:24:34;;;;;;;4.07;1.60;;;;;;;;;;5041969;28;20568;-77
2022/01/31 14:27:04;;;;;;;3.23;1.30;;;;;;;;;;5041951;28;20465;-76
2022/01/31 14:29:31;;;;;;;6.63;1.50;;;;;;;;;;5048511;28;20447;-76
2022/01/31 14:31:58;;;;;;;5.33;1.13;;;;;;;;;;5046627;28;20492;-76
2022/01/31 14:34:24;;;;;;;2.70;1.00;;;;;;;;;;5039945;28;20469;-76
2022/01/31 14:36:53;;;;;;;2.73;1.53;;;;;;;;;;5044339;28;20453;-75
2022/01/31 14:47:20;;;;;;;5.30;2.13;;;;;;;;;;5045749;28;20439;-76
2022/01/31 14:49:47;;;;;;;2.47;1.40;;;;;;;;;;5038605;28;20409;-76
2022/01/31 14:52:13;;;;;;;2.13;1.40;;;;;;;;;;5043232;28;20927;-76
2022/01/31 14:54:40;;;;;;;2.73;1.57;;;;;;;;;;5040058;28;20463;-76
2022/01/31 14:57:07;;;;;;;4.37;1.30;;;;;;;;;;5051114;28;20460;-75
2022/01/31 14:59:33;;;;;;;1.80;1.20;;;;;;;;;;5045820;28;20426;-77
2022/01/31 15:01:59;;;;;;;2.60;1.60;;;;;;;;;;5047472;28;20417;-75
2022/01/31 15:04:25;;;;;;;4.53;1.60;;;;;;;;;;5054900;28;20441;-75
2022/01/31 15:06:51;;;;;;;4.77;1.80;;;;;;;;;;5049223;28;20437;-75
2022/01/31 15:09:18;;;;;;;3.03;1.57;;;;;;;;;;5053075;28;21135;-75
2022/01/31 15:11:45;;;;;;;3.10;1.67;;;;;;;;;;5037405;28;20917;-76
2022/01/31 15:14:12;;;;;;;2.70;1.80;;;;;;;;;;5049034;28;20992;-76
2022/01/31 15:16:41;;;;;;;1.83;1.50;;;;;;;;;;5052018;28;20499;-76
2022/01/31 15:19:07;;;;;;;2.50;1.50;;;;;;;;;;5047022;28;20445;-76
2022/01/31 15:21:34;;;;;;;6.33;1.50;;;;;;;;;;5054916;28;20518;-77
2022/01/31 15:24:03;;;;;;;2.97;1.90;;;;;;;;;;5051385;28;20429;-76
2022/01/31 15:26:30;;;;;;;2.63;1.60;;;;;;;;;;5040636;28;20503;-76
2022/01/31 15:28:57;;;;;;;2.33;1.80;;;;;;;;;;5045460;28;20421;-77
2022/01/31 15:31:23;;;;;;;3.40;1.83;;;;;;;;;;5049242;28;20435;-76